createdAt,value
2023-05-06T00:04:38.490Z,2.00
2023-05-06T00:08:43.644Z,2.30
2023-05-06T00:12:48.745Z,1.80
2023-05-06T00:16:53.861Z,2.20
2023-05-06T00:20:58.923Z,2.20
2023-05-06T00:25:03.988Z,1.90
2023-05-06T00:29:09.045Z,1.70
2023-05-06T00:33:14.161Z,1.80
2023-05-06T00:37:19.236Z,2.20
2023-05-06T00:41:24.471Z,2.10
2023-05-06T00:45:29.688Z,1.60
2023-05-06T00:49:34.805Z,2.00
2023-05-06T00:53:39.850Z,1.90
2023-05-06T00:57:44.924Z,2.10
2023-05-06T01:01:50.044Z,1.40
2023-05-06T01:06:00.961Z,1.70
2023-05-06T01:10:09.026Z,1.50
2023-05-06T01:14:16.201Z,2.10
2023-05-06T01:18:22.537Z,2.00
2023-05-06T01:22:27.957Z,2.20
2023-05-06T01:26:33.037Z,1.90
2023-05-06T01:30:40.258Z,1.50
2023-05-06T01:34:50.704Z,1.70
2023-05-06T01:39:02.198Z,1.80
2023-05-06T01:43:07.587Z,1.60
2023-05-06T01:47:12.977Z,1.80
2023-05-06T01:51:18.115Z,2.00
2023-05-06T01:55:23.410Z,2.20
2023-05-06T01:59:29.671Z,2.00
2023-05-06T02:03:35.092Z,1.50
2023-05-06T02:07:40.330Z,1.90
2023-05-06T02:11:46.216Z,1.90
2023-05-06T02:15:55.005Z,2.00
2023-05-06T02:20:00.304Z,2.30
2023-05-06T02:24:05.646Z,1.80
2023-05-06T02:28:10.732Z,1.70
2023-05-06T02:32:15.815Z,2.00
2023-05-06T02:36:21.013Z,1.80
2023-05-06T02:40:26.193Z,2.10
2023-05-06T02:44:31.396Z,2.20
2023-05-06T02:48:36.446Z,1.80
2023-05-06T02:52:41.567Z,1.60
2023-05-06T02:56:46.674Z,1.90
2023-05-06T03:00:51.775Z,2.00
2023-05-06T03:04:56.925Z,1.60
2023-05-06T03:09:02.000Z,2.10
2023-05-06T03:13:07.073Z,1.80
2023-05-06T03:17:12.182Z,1.90
2023-05-06T03:21:17.281Z,1.70
2023-05-06T03:25:22.344Z,1.50
2023-05-06T03:29:27.389Z,1.70
2023-05-06T03:33:32.424Z,1.60
2023-05-06T03:37:37.488Z,1.70
2023-05-06T03:41:42.515Z,1.90
2023-05-06T03:45:48.197Z,1.80
2023-05-06T03:53:56.956Z,1.60
2023-05-06T03:58:02.036Z,1.80
2023-05-06T04:02:07.118Z,1.60
2023-05-06T04:06:12.244Z,1.80
2023-05-06T04:10:17.316Z,1.60
2023-05-06T04:14:22.417Z,1.50
2023-05-06T04:18:27.692Z,1.60
2023-05-06T04:22:32.755Z,1.60
2023-05-06T04:26:37.787Z,1.60
2023-05-06T04:30:43.603Z,1.70
2023-05-06T04:34:48.991Z,1.40
2023-05-06T04:38:57.104Z,2.00
2023-05-06T04:47:06.218Z,1.70
2023-05-06T04:51:11.288Z,2.10
2023-05-06T04:55:16.388Z,1.70
2023-05-06T04:59:21.486Z,1.60
2023-05-06T05:03:26.945Z,2.10
2023-05-06T05:07:32.200Z,1.70
2023-05-06T05:11:39.213Z,1.90
2023-05-06T05:15:44.271Z,2.30
2023-05-06T05:19:53.781Z,1.50
2023-05-06T05:23:58.843Z,1.40
2023-05-06T05:28:04.061Z,1.50
2023-05-06T05:32:09.161Z,1.70
2023-05-06T05:36:15.446Z,1.60
2023-05-06T05:40:20.645Z,1.80
2023-05-06T05:44:25.784Z,1.60
2023-05-06T05:48:32.634Z,1.60
2023-05-06T05:52:37.890Z,1.80
2023-05-06T05:56:43.049Z,2.20
2023-05-06T06:00:48.131Z,2.00
2023-05-06T06:04:53.293Z,1.80
2023-05-06T06:08:59.431Z,1.70
2023-05-06T06:13:06.089Z,1.80
2023-05-06T06:17:11.296Z,2.20
2023-05-06T06:21:16.458Z,1.40
2023-05-06T06:25:21.553Z,1.50
2023-05-06T06:29:26.678Z,1.80
2023-05-06T06:33:31.778Z,1.50
2023-05-06T06:37:36.950Z,1.90
2023-05-06T06:45:47.684Z,1.80
2023-05-06T06:49:52.787Z,1.90
2023-05-06T06:53:57.888Z,1.80
2023-05-06T06:58:03.178Z,1.80
2023-05-06T07:02:10.555Z,1.90
2023-05-06T07:06:15.779Z,1.70
2023-05-06T07:10:21.102Z,1.60
2023-05-06T07:14:26.776Z,1.70
2023-05-06T07:18:31.863Z,2.00
2023-05-06T07:26:40.903Z,1.70
2023-05-06T07:30:46.583Z,1.30
2023-05-06T07:34:51.738Z,1.90
2023-05-06T07:38:56.856Z,1.40
2023-05-06T07:43:01.957Z,1.40
2023-05-06T07:47:07.119Z,1.40
2023-05-06T07:51:12.409Z,1.60
2023-05-06T07:55:17.525Z,1.40
2023-05-06T07:59:22.668Z,1.40
2023-05-06T08:03:28.011Z,1.20
2023-05-06T08:07:33.284Z,1.40
2023-05-06T08:11:38.942Z,2.00
2023-05-06T08:15:44.280Z,1.60
2023-05-06T08:19:49.718Z,1.60
2023-05-06T08:23:55.315Z,1.80
2023-05-06T08:28:00.419Z,1.60
2023-05-06T08:32:05.687Z,1.70
2023-05-06T08:36:10.857Z,1.30
2023-05-06T08:40:19.348Z,1.50
2023-05-06T08:44:25.348Z,1.50
2023-05-06T08:48:30.439Z,1.60
2023-05-06T08:52:36.885Z,1.40
2023-05-06T08:56:44.398Z,1.20
2023-05-06T09:00:49.638Z,1.40
2023-05-06T09:04:55.398Z,1.30
2023-05-06T09:09:00.460Z,1.20
2023-05-06T09:13:05.604Z,1.60
2023-05-06T09:17:24.149Z,1.30
2023-05-06T09:21:34.885Z,1.30
2023-05-06T09:25:40.318Z,1.30
2023-05-06T09:29:59.716Z,1.30
2023-05-06T09:34:04.988Z,1.00
2023-05-06T09:38:10.848Z,1.20
2023-05-06T09:42:17.185Z,1.40
2023-05-06T09:46:22.925Z,1.30
2023-05-06T09:50:28.264Z,1.40
2023-05-06T09:54:33.592Z,1.70
2023-05-06T09:58:38.916Z,1.50
2023-05-06T10:02:44.669Z,1.20
2023-05-06T10:06:50.864Z,1.30
2023-05-06T10:10:56.818Z,1.20
2023-05-06T10:15:01.909Z,1.40
2023-05-06T10:19:09.356Z,1.40
2023-05-06T10:23:23.066Z,1.50
2023-05-06T10:27:29.633Z,1.30
2023-05-06T10:31:35.494Z,2.40
2023-05-06T10:35:45.432Z,1.30
2023-05-06T10:39:50.599Z,1.30
2023-05-06T10:43:57.658Z,1.20
2023-05-06T10:48:12.817Z,1.30
2023-05-06T10:52:18.326Z,1.30
2023-05-06T10:56:23.465Z,1.40
2023-05-06T11:00:31.464Z,1.30
2023-05-06T11:04:37.619Z,1.50
2023-05-06T11:08:45.983Z,1.30
2023-05-06T11:12:52.726Z,1.40
2023-05-06T11:16:58.451Z,1.10
2023-05-06T11:21:17.758Z,1.70
2023-05-06T11:25:42.118Z,1.60
2023-05-06T11:29:47.654Z,1.40
2023-05-06T11:33:54.484Z,1.60
2023-05-06T11:37:59.633Z,1.60
2023-05-06T11:42:06.788Z,1.80
2023-05-06T11:46:11.921Z,1.50
2023-05-06T11:50:22.797Z,1.90
2023-05-06T11:54:28.619Z,1.80
2023-05-06T11:58:34.151Z,1.90
2023-05-06T12:02:42.288Z,1.70
2023-05-06T12:06:47.547Z,1.70
2023-05-06T12:10:53.057Z,1.30
2023-05-06T12:14:58.159Z,2.00
2023-05-06T12:19:03.470Z,1.60
2023-05-06T12:23:08.933Z,1.40
2023-05-06T12:27:14.263Z,1.30
2023-05-06T12:31:23.346Z,1.90
2023-05-06T12:35:29.259Z,1.60
2023-05-06T12:39:36.608Z,2.00
2023-05-06T12:43:41.719Z,1.70
2023-05-06T12:48:03.968Z,2.20
2023-05-06T12:52:10.280Z,2.20
2023-05-06T12:56:15.350Z,2.30
2023-05-06T13:04:24.064Z,1.90
2023-05-06T13:12:32.690Z,1.70
2023-05-06T13:16:38.477Z,2.00
2023-05-06T13:20:43.656Z,2.40
2023-05-06T13:24:48.750Z,2.20
2023-05-06T13:28:53.835Z,2.00
2023-05-06T13:32:58.962Z,1.90
2023-05-06T13:41:08.154Z,2.00
2023-05-06T13:45:13.338Z,2.10
2023-05-06T13:53:22.468Z,2.10
2023-05-06T13:57:27.577Z,2.20
2023-05-06T14:01:32.766Z,2.30
2023-05-06T14:09:41.492Z,2.20
2023-05-06T14:13:46.591Z,2.00
2023-05-06T14:17:51.723Z,2.10
2023-05-06T14:21:56.919Z,2.20
2023-05-06T14:26:02.011Z,1.80
2023-05-06T14:30:09.671Z,2.50
2023-05-06T14:34:15.039Z,2.50
2023-05-06T14:38:20.232Z,2.10
2023-05-06T14:42:25.656Z,2.60
2023-05-06T14:46:31.042Z,2.90
2023-05-06T14:50:36.219Z,2.40
2023-05-06T14:54:42.469Z,2.30
2023-05-06T14:58:47.739Z,2.00
2023-05-06T15:02:53.004Z,2.00
2023-05-06T15:11:04.269Z,2.80
2023-05-06T15:15:10.931Z,2.60
2023-05-06T15:19:16.276Z,2.50
2023-05-06T15:23:21.588Z,2.40
2023-05-06T15:27:26.668Z,2.30
2023-05-06T15:31:33.751Z,2.70
2023-05-06T15:35:38.902Z,2.30
2023-05-06T15:39:44.192Z,2.60
2023-05-06T15:43:49.278Z,2.90
2023-05-06T15:47:55.654Z,2.90
2023-05-06T15:52:01.422Z,3.10
2023-05-06T15:56:17.782Z,2.50
2023-05-06T16:00:24.101Z,3.10
2023-05-06T16:08:33.802Z,2.50
2023-05-06T16:12:38.999Z,2.80
2023-05-06T16:16:44.257Z,3.00
2023-05-06T16:20:49.403Z,2.60
2023-05-06T16:24:54.524Z,2.50
2023-05-06T16:29:01.456Z,3.00
2023-05-06T16:33:06.866Z,2.80
2023-05-06T16:37:13.567Z,3.30
2023-05-06T16:41:18.651Z,3.10
2023-05-06T16:45:23.818Z,2.90
2023-05-06T16:49:28.935Z,3.20
2023-05-06T16:53:34.094Z,3.30
2023-05-06T16:57:39.178Z,3.50
2023-05-06T17:01:44.460Z,3.80
2023-05-06T17:05:52.623Z,4.00
2023-05-06T17:09:58.231Z,3.60
2023-05-06T17:14:03.651Z,3.90
2023-05-06T17:18:08.754Z,3.40
2023-05-06T17:22:13.796Z,3.80
2023-05-06T17:26:18.835Z,3.90
2023-05-06T17:30:23.950Z,4.30
2023-05-06T17:34:29.377Z,3.80
2023-05-06T17:38:35.561Z,3.90
2023-05-06T17:42:40.618Z,3.60
2023-05-06T17:46:46.533Z,4.00
2023-05-06T17:50:51.717Z,4.60
2023-05-06T17:55:11.338Z,5.20
2023-05-06T17:59:21.118Z,3.50
2023-05-06T18:03:26.295Z,4.10
2023-05-06T18:07:31.459Z,3.80
2023-05-06T18:11:36.611Z,3.80
2023-05-06T18:15:41.709Z,3.80
2023-05-06T18:19:46.759Z,4.00
2023-05-06T18:23:58.718Z,2.90
2023-05-06T18:28:07.727Z,2.70
2023-05-06T18:32:13.020Z,2.90
2023-05-06T18:36:18.176Z,2.60
2023-05-06T18:40:23.391Z,2.40
2023-05-06T18:44:28.838Z,3.10
2023-05-06T18:48:33.904Z,1.60
2023-05-06T18:52:39.010Z,2.50
2023-05-06T18:56:44.090Z,2.70
2023-05-06T19:00:49.304Z,2.70
2023-05-06T19:04:54.406Z,2.40
2023-05-06T19:08:59.491Z,2.40
2023-05-06T19:13:05.113Z,2.80
2023-05-06T19:17:11.356Z,2.70
2023-05-06T19:21:18.540Z,2.40
2023-05-06T19:25:23.765Z,2.60
2023-05-06T19:29:28.864Z,2.40
2023-05-06T19:33:33.890Z,2.50
2023-05-06T19:37:38.991Z,2.60
2023-05-06T19:41:44.089Z,2.70
2023-05-06T19:45:49.195Z,2.60
2023-05-06T19:49:54.326Z,2.90
2023-05-06T19:53:59.375Z,2.60
2023-05-06T19:58:04.559Z,3.10
2023-05-06T20:02:13.365Z,3.30
2023-05-06T20:06:18.473Z,3.20
2023-05-06T20:10:23.649Z,3.50
2023-05-06T20:14:29.031Z,3.40
2023-05-06T20:18:34.163Z,4.10
2023-05-06T20:22:39.852Z,3.50
2023-05-06T20:26:44.933Z,4.20
2023-05-06T20:30:51.467Z,4.50
2023-05-06T20:34:56.535Z,3.50
2023-05-06T20:39:02.338Z,4.40
2023-05-06T20:43:07.442Z,4.40
2023-05-06T20:47:12.595Z,3.80
2023-05-06T20:51:17.674Z,4.30
2023-05-06T20:55:23.279Z,3.70
2023-05-06T20:59:29.485Z,2.90
2023-05-06T21:03:34.633Z,3.90
2023-05-06T21:07:39.739Z,3.20
2023-05-06T21:11:44.994Z,3.10
2023-05-06T21:15:50.076Z,3.70
2023-05-06T21:19:55.282Z,3.00
2023-05-06T21:24:00.480Z,3.40
2023-05-06T21:28:06.631Z,3.70
2023-05-06T21:32:11.746Z,3.80
2023-05-06T21:36:16.799Z,3.60
2023-05-06T21:40:21.963Z,3.10
2023-05-06T21:44:27.045Z,3.60
2023-05-06T21:48:32.156Z,3.00
2023-05-06T21:52:37.214Z,2.40
2023-05-06T21:56:42.277Z,2.70
2023-05-06T22:00:47.442Z,1.70
2023-05-06T22:04:52.642Z,1.60
2023-05-06T22:08:57.716Z,2.50
2023-05-06T22:13:03.228Z,2.90
2023-05-06T22:17:08.384Z,2.30
2023-05-06T22:21:13.432Z,2.40
2023-05-06T22:25:18.525Z,2.20
2023-05-06T22:29:23.596Z,1.70
2023-05-06T22:33:28.667Z,1.90
2023-05-06T22:37:33.757Z,2.30
2023-05-06T22:41:38.932Z,2.20
2023-05-06T22:45:44.509Z,2.40
2023-05-06T22:53:53.293Z,2.30
2023-05-06T22:57:58.311Z,2.00
2023-05-06T23:02:03.559Z,2.00
2023-05-06T23:06:11.378Z,2.30
2023-05-06T23:10:16.765Z,2.20
2023-05-06T23:14:21.855Z,2.20
2023-05-06T23:18:26.975Z,1.70
2023-05-06T23:22:32.036Z,2.20
2023-05-06T23:26:37.158Z,2.10
2023-05-06T23:30:42.583Z,2.00
2023-05-06T23:34:47.685Z,2.10
2023-05-06T23:38:52.788Z,2.20
2023-05-06T23:42:57.848Z,2.00
2023-05-06T23:47:02.955Z,1.90
2023-05-06T23:51:08.052Z,2.50
2023-05-06T23:55:13.578Z,1.90
